Aviation Digital Data Service (ADDS)

Output produced by METARs form (0117 UTC 16 January 2019)
found at http://www.aviationweather.gov/metar/data/
 
LFRN 160100Z AUTO 19002KT CAVOK 03/01 Q1018 NOSIG
TAF LFRN 152300Z 1600/1624 18005KT 9999 BKN025 
     BECMG 1610/1612 19010KT 
     BECMG 1612/1614 BKN013 
     TEMPO 1614/1618 3000 RADZ BKN005 
     BECMG 1617/1619 28010KT SCT020 
     BECMG 1620/1622 22010KT